Bookmark and Share
Track history (hours):
 

Ginga

Last reported at 2014-Apr-24 20:33 UTC. Time now 2014-Apr-24 22:06 UTC.
Position N 34°39' E 135°10'.

Length 28 m; draft 1.6 m.

Type: Other ship. MMSI: 431301704.

NotesDate/timePositionNaut miles runAvg speedWind from/ knotsBaromVisibWave heightAir tempDewpointWater temp
2014-Apr-24 20:33N 34°39' E 135°10'9 9.0
2014-Apr-24 19:33N 34°37' E 134°59'8 7.6
2014-Apr-24 18:33N 34°35' E 135°08'4 4.1
2014-Apr-24 17:33N 34°39' E 135°09'0 0.0
2014-Apr-24 09:14N 34°39' E 135°10'1115.4
2014-Apr-24 08:33N 34°30' E 135°04'2 0.8
2014-Apr-24 06:33N 34°29' E 135°02'7 7.3
2014-Apr-24 05:32N 34°36' E 135°02'9 0.4
2014-Apr-23 04:09N 34°34' E 134°50'914.4
2014-Apr-23 03:31N 34°37' E 135°01'7 7.1
2014-Apr-23 02:33N 34°34' E 135°08'9 8.7
2014-Apr-23 01:33N 34°26' E 135°04'9 0.5
2014-Apr-22 08:26N 34°19' E 134°57'6 6.4
2014-Apr-22 07:33N 34°24' E 135°00'1110.8
2014-Apr-22 06:32N 34°34' E 135°05'9 0.8
2014-Apr-21 18:33N 34°37' E 134°54'9 9.1
2014-Apr-21 17:33N 34°35' E 135°05'5 5.3
2014-Apr-21 16:33N 34°39' E 135°09'0 0.0
2014-Apr-21 07:33N 34°39' E 135°09'1111.1
2014-Apr-21 06:32N 34°38' E 134°56'3 1.2
2014-Apr-21 03:33N 34°35' E 134°53'1111.3
2014-Apr-21 02:34N 34°34' E 135°06'5 5.0
2014-Apr-21 01:32N 34°29' E 135°06'1611.3
2014-Apr-21 00:05N 34°14' E 134°59'2 2.3
2014-Apr-20 23:05N 34°16' E 134°60'815.9
2014-Apr-20 22:33N 34°24' E 135°01'1616.1
2014-Apr-20 21:33N 34°39' E 135°10'4 0.3
2014-Apr-20 06:33N 34°36' E 135°06'5 5.3
2014-Apr-20 05:33N 34°37' E 134°60'4 1.3
2014-Apr-20 02:32N 34°35' E 135°04'5 5.5
2014-Apr-20 01:33N 34°38' E 134°58'9 0.3
2014-Apr-18 20:04N 34°39' E 135°09'610.4
2014-Apr-18 19:32N 34°37' E 135°03'2 2.1
2014-Apr-18 18:33N 34°35' E 135°05'5 5.4
2014-Apr-18 17:33N 34°39' E 135°09'6 0.5
2014-Apr-18 05:33N 34°35' E 135°05'5 4.7
2014-Apr-18 04:33N 34°37' E 134°59'9 8.6
2014-Apr-18 03:33N 34°39' E 135°09'4 0.2
2014-Apr-17 04:33N 34°37' E 135°05'2 1.6
2014-Apr-17 03:33N 34°36' E 135°04'5 5.4
2014-Apr-17 02:33N 34°39' E 135°09'9 0.2
2014-Apr-15 03:32N 34°36' E 134°58'9 9.7
2014-Apr-15 02:34N 34°39' E 135°09'  

Dump ship's entire track history

sailing weather and tide predictions

Ginga — JJ4054 — position and weather